createdAt,value
2023-08-13T00:01:15.905Z,7.95
2023-08-13T00:03:44.471Z,7.57
2023-08-13T00:06:12.589Z,8.17
2023-08-13T00:08:40.866Z,7.57
2023-08-13T00:11:15.841Z,7.60
2023-08-13T00:13:44.252Z,7.55
2023-08-13T00:16:12.909Z,7.75
2023-08-13T00:18:41.900Z,7.83
2023-08-13T00:21:09.871Z,7.80
2023-08-13T00:23:37.901Z,7.95
2023-08-13T00:26:06.397Z,7.35
2023-08-13T00:28:35.326Z,7.28
2023-08-13T00:31:03.314Z,7.40
2023-08-13T00:33:31.931Z,7.40
2023-08-13T00:36:00.109Z,7.55
2023-08-13T00:38:28.272Z,6.72
2023-08-13T00:40:56.376Z,7.75
2023-08-13T00:43:24.494Z,7.27
2023-08-13T00:45:52.657Z,7.35
2023-08-13T00:48:21.206Z,7.07
2023-08-13T00:50:49.142Z,7.63
2023-08-13T00:53:18.728Z,7.03
2023-08-13T00:55:47.090Z,6.83
2023-08-13T00:58:16.878Z,6.72
2023-08-13T01:00:45.155Z,6.60
2023-08-13T01:03:13.660Z,6.30
2023-08-13T01:05:59.333Z,6.78
2023-08-13T01:08:37.586Z,6.17
2023-08-13T01:11:30.955Z,6.20
2023-08-13T01:14:13.089Z,5.72
2023-08-13T01:16:43.724Z,6.07
2023-08-13T01:19:16.917Z,6.13
2023-08-13T01:21:45.017Z,5.93
2023-08-13T01:24:13.081Z,5.95
2023-08-13T01:27:14.348Z,6.32
2023-08-13T01:29:57.724Z,5.90
2023-08-13T01:32:33.853Z,5.88
2023-08-13T01:35:03.379Z,6.33
2023-08-13T01:37:31.469Z,6.03
2023-08-13T01:39:59.969Z,6.00
2023-08-13T01:42:28.514Z,5.68
2023-08-13T01:44:56.534Z,6.05
2023-08-13T01:47:27.554Z,5.70
2023-08-13T01:49:55.950Z,5.65
2023-08-13T01:52:24.200Z,6.28
2023-08-13T01:54:53.543Z,6.20
2023-08-13T01:57:21.773Z,6.00
2023-08-13T01:59:50.092Z,5.80
2023-08-13T02:02:18.052Z,5.88
2023-08-13T02:04:46.302Z,6.50
2023-08-13T02:07:14.382Z,6.10
2023-08-13T02:09:42.646Z,6.20
2023-08-13T02:12:10.554Z,5.97
2023-08-13T02:14:38.970Z,5.97
2023-08-13T02:17:08.466Z,6.80
2023-08-13T02:19:38.334Z,6.88
2023-08-13T02:22:06.265Z,6.60
2023-08-13T02:24:34.777Z,6.90
2023-08-13T02:27:02.809Z,6.70
2023-08-13T02:29:32.693Z,6.32
2023-08-13T02:32:00.638Z,6.70
2023-08-13T02:34:30.588Z,6.65
2023-08-13T02:36:58.666Z,6.50
2023-08-13T02:39:26.722Z,6.95
2023-08-13T02:41:55.018Z,6.60
2023-08-13T02:44:24.445Z,6.97
2023-08-13T02:46:52.871Z,6.60
2023-08-13T02:49:20.927Z,6.57
2023-08-13T02:51:49.461Z,6.60
2023-08-13T02:54:17.468Z,6.82
2023-08-13T02:56:46.526Z,6.70
2023-08-13T02:59:14.706Z,6.78
2023-08-13T03:01:45.764Z,6.77
2023-08-13T03:04:14.165Z,6.88
2023-08-13T03:06:42.266Z,6.75
2023-08-13T03:09:23.142Z,6.72
2023-08-13T03:11:51.453Z,6.72
2023-08-13T03:14:20.845Z,6.33
2023-08-13T03:16:50.803Z,6.65
2023-08-13T03:19:18.926Z,6.53
2023-08-13T03:21:47.987Z,6.40
2023-08-13T03:24:16.282Z,6.85
2023-08-13T03:26:45.765Z,7.00
2023-08-13T03:29:14.214Z,7.70
2023-08-13T03:31:42.586Z,7.53
2023-08-13T03:34:22.906Z,8.10
2023-08-13T03:36:51.645Z,7.60
2023-08-13T03:39:19.680Z,7.17
2023-08-13T03:41:47.811Z,7.30
2023-08-13T03:44:16.110Z,7.82
2023-08-13T03:46:44.207Z,8.65
2023-08-13T03:49:12.044Z,8.30
2023-08-13T03:51:40.325Z,7.80
2023-08-13T03:54:11.186Z,8.05
2023-08-13T03:56:40.039Z,7.53
2023-08-13T03:59:08.240Z,7.82
2023-08-13T04:01:37.556Z,7.43
2023-08-13T04:04:06.380Z,7.30
2023-08-13T04:06:37.635Z,7.15
2023-08-13T04:09:06.729Z,6.75
2023-08-13T04:11:34.565Z,6.80
2023-08-13T04:14:02.742Z,6.85
2023-08-13T04:16:34.419Z,6.70
2023-08-13T04:19:02.791Z,7.13
2023-08-13T04:21:33.172Z,7.07
2023-08-13T04:24:01.310Z,6.47
2023-08-13T04:26:29.211Z,6.55
2023-08-13T04:28:59.581Z,6.30
2023-08-13T04:31:29.015Z,6.50
2023-08-13T04:33:56.952Z,6.55
2023-08-13T04:36:25.026Z,6.20
2023-08-13T04:38:54.501Z,6.50
2023-08-13T04:41:24.089Z,6.27
2023-08-13T04:43:52.047Z,5.80
2023-08-13T04:46:20.175Z,5.82
2023-08-13T04:48:56.527Z,6.07
2023-08-13T04:51:27.519Z,5.97
2023-08-13T04:53:55.904Z,5.43
2023-08-13T04:56:26.172Z,5.38
2023-08-13T04:58:55.340Z,5.53
2023-08-13T05:01:23.699Z,5.28
2023-08-13T05:03:56.068Z,5.55
2023-08-13T05:06:24.369Z,5.77
2023-08-13T05:08:55.016Z,5.38
2023-08-13T05:11:23.325Z,5.45
2023-08-13T05:13:51.290Z,5.32
2023-08-13T05:16:20.866Z,5.53
2023-08-13T05:18:51.137Z,5.70
2023-08-13T05:21:19.328Z,5.38
2023-08-13T05:23:48.537Z,5.20
2023-08-13T05:26:16.894Z,5.43
2023-08-13T05:28:46.759Z,5.57
2023-08-13T05:31:16.266Z,5.60
2023-08-13T05:33:47.953Z,5.53
2023-08-13T05:36:16.767Z,5.72
2023-08-13T05:38:44.855Z,5.22
2023-08-13T05:41:13.130Z,5.50
2023-08-13T05:43:40.912Z,4.70
2023-08-13T05:46:09.529Z,4.95
2023-08-13T05:48:38.725Z,4.78
2023-08-13T05:51:06.740Z,5.38
2023-08-13T05:53:34.666Z,4.90
2023-08-13T05:56:03.002Z,5.00
2023-08-13T05:58:31.021Z,4.90
2023-08-13T06:00:59.164Z,4.50
2023-08-13T06:03:27.731Z,5.03
2023-08-13T06:05:57.330Z,4.95
2023-08-13T06:08:25.267Z,4.73
2023-08-13T06:10:53.264Z,5.00
2023-08-13T06:13:21.210Z,4.78
2023-08-13T06:15:49.410Z,4.93
2023-08-13T06:18:22.647Z,4.82
2023-08-13T06:20:50.862Z,4.27
2023-08-13T06:23:18.763Z,4.40
2023-08-13T06:25:47.456Z,4.53
2023-08-13T06:28:15.756Z,4.35
2023-08-13T06:30:46.366Z,4.88
2023-08-13T06:33:14.450Z,4.43
2023-08-13T06:35:46.514Z,4.18
2023-08-13T06:38:16.152Z,4.22
2023-08-13T06:40:46.086Z,4.57
2023-08-13T06:43:14.942Z,4.50
2023-08-13T06:45:42.687Z,4.53
2023-08-13T06:48:10.939Z,4.35
2023-08-13T06:50:40.293Z,4.50
2023-08-13T06:53:08.428Z,4.65
2023-08-13T06:55:36.400Z,4.10
2023-08-13T06:58:06.191Z,4.60
2023-08-13T07:00:39.832Z,4.63
2023-08-13T07:03:10.096Z,4.65
2023-08-13T07:05:39.804Z,4.30
2023-08-13T07:08:09.108Z,4.53
2023-08-13T07:10:37.259Z,4.47
2023-08-13T07:13:05.784Z,4.53
2023-08-13T07:15:34.078Z,4.30
2023-08-13T07:18:02.576Z,4.55
2023-08-13T07:20:30.550Z,4.82
2023-08-13T07:23:00.005Z,4.70
2023-08-13T07:25:28.774Z,4.80
2023-08-13T07:27:57.077Z,5.13
2023-08-13T07:30:25.105Z,4.90
2023-08-13T07:32:53.573Z,4.88
2023-08-13T07:35:22.280Z,5.17
2023-08-13T07:37:51.479Z,5.50
2023-08-13T07:40:20.110Z,5.40
2023-08-13T07:42:48.184Z,5.03
2023-08-13T07:45:16.309Z,5.00
2023-08-13T07:47:44.445Z,5.10
2023-08-13T07:50:13.630Z,4.93
2023-08-13T07:52:43.918Z,5.10
2023-08-13T07:55:12.320Z,5.75
2023-08-13T07:57:40.658Z,5.25
2023-08-13T08:00:12.081Z,5.50
2023-08-13T08:02:41.185Z,5.20
2023-08-13T08:05:09.490Z,5.40
2023-08-13T08:07:38.004Z,5.15
2023-08-13T08:10:06.546Z,4.90
2023-08-13T08:12:34.547Z,5.03
2023-08-13T08:15:03.044Z,5.20
2023-08-13T08:17:31.177Z,5.10
2023-08-13T08:20:01.652Z,5.25
2023-08-13T08:22:30.056Z,5.43
2023-08-13T08:24:58.003Z,4.93
2023-08-13T08:27:26.313Z,5.38
2023-08-13T08:29:54.707Z,7.72
2023-08-13T08:32:22.829Z,5.38
2023-08-13T08:34:50.747Z,5.43
2023-08-13T08:37:19.057Z,5.47
2023-08-13T08:39:47.115Z,5.25
2023-08-13T08:42:15.812Z,5.20
2023-08-13T08:44:45.193Z,5.25
2023-08-13T08:47:13.419Z,5.22
2023-08-13T08:49:42.367Z,5.17
2023-08-13T08:52:11.241Z,5.07
2023-08-13T08:54:41.517Z,5.00
2023-08-13T08:57:10.089Z,5.00
2023-08-13T08:59:38.613Z,5.43
2023-08-13T09:02:07.151Z,5.23
2023-08-13T09:04:35.401Z,5.43
2023-08-13T09:07:04.859Z,5.57
2023-08-13T09:09:33.455Z,4.93
2023-08-13T09:12:01.461Z,5.57
2023-08-13T09:14:30.006Z,5.43
2023-08-13T09:16:59.510Z,5.13
2023-08-13T09:19:29.726Z,5.32
2023-08-13T09:22:03.128Z,4.80
2023-08-13T09:24:36.308Z,5.10
2023-08-13T09:27:09.042Z,5.30
2023-08-13T09:29:39.056Z,5.00
2023-08-13T09:32:07.801Z,5.22
2023-08-13T09:34:38.925Z,4.82
2023-08-13T09:37:07.318Z,5.10
2023-08-13T09:39:35.384Z,5.57
2023-08-13T09:42:07.333Z,5.40
2023-08-13T09:44:35.728Z,5.15
2023-08-13T09:47:05.550Z,5.25
2023-08-13T09:49:35.764Z,4.78
2023-08-13T09:52:13.305Z,5.03
2023-08-13T09:54:50.681Z,4.95
2023-08-13T09:57:21.986Z,5.22
2023-08-13T09:59:51.856Z,4.90
2023-08-13T10:02:20.488Z,5.20
2023-08-13T10:04:52.048Z,5.33
2023-08-13T10:07:21.954Z,5.57
2023-08-13T10:10:02.796Z,5.20
2023-08-13T10:12:35.960Z,5.25
2023-08-13T10:15:04.449Z,5.60
2023-08-13T10:17:34.274Z,5.13
2023-08-13T10:20:03.685Z,5.50
2023-08-13T10:22:38.038Z,5.45
2023-08-13T10:25:08.844Z,5.60
2023-08-13T10:27:38.881Z,5.80
2023-08-13T10:30:14.116Z,5.07
2023-08-13T10:33:03.410Z,5.85
2023-08-13T10:35:39.413Z,5.50
2023-08-13T10:38:12.395Z,6.00
2023-08-13T10:41:00.544Z,5.55
2023-08-13T10:43:29.847Z,5.57
2023-08-13T10:45:57.925Z,5.30
2023-08-13T10:48:29.724Z,5.88
2023-08-13T10:50:59.850Z,6.00
2023-08-13T10:53:29.346Z,5.68
2023-08-13T10:56:01.605Z,5.87
2023-08-13T10:58:43.217Z,5.10
2023-08-13T11:01:12.553Z,5.82
2023-08-13T11:03:58.857Z,5.68
2023-08-13T11:06:29.832Z,5.68
2023-08-13T11:08:58.470Z,5.50
2023-08-13T11:11:29.971Z,5.60
2023-08-13T11:13:58.581Z,6.78
2023-08-13T11:16:29.934Z,6.50
2023-08-13T11:19:00.009Z,6.68
2023-08-13T11:21:28.498Z,13.30
2023-08-13T11:23:58.035Z,12.20
2023-08-13T11:26:26.525Z,7.45
2023-08-13T11:28:59.359Z,6.95
2023-08-13T11:31:27.578Z,6.28
2023-08-13T11:33:55.494Z,6.67
2023-08-13T11:36:23.917Z,6.20
2023-08-13T11:38:52.129Z,6.22
2023-08-13T11:41:22.774Z,5.97
2023-08-13T11:43:55.063Z,6.03
2023-08-13T11:46:24.089Z,7.20
2023-08-13T11:48:56.616Z,5.93
2023-08-13T11:51:26.842Z,6.10
2023-08-13T11:53:55.000Z,5.13
2023-08-13T11:56:22.999Z,5.20
2023-08-13T11:58:53.089Z,4.97
2023-08-13T12:01:25.146Z,5.28
2023-08-13T12:03:54.430Z,5.75
2023-08-13T12:06:23.428Z,5.28
2023-08-13T12:08:53.895Z,5.70
2023-08-13T12:11:22.016Z,5.50
2023-08-13T12:13:49.925Z,5.50
2023-08-13T12:16:18.068Z,5.38
2023-08-13T12:18:46.211Z,5.50
2023-08-13T12:21:14.313Z,5.13
2023-08-13T12:23:42.382Z,4.70
2023-08-13T12:26:14.334Z,5.05
2023-08-13T12:28:42.791Z,4.57
2023-08-13T12:31:10.946Z,4.93
2023-08-13T12:33:39.191Z,4.90
2023-08-13T12:36:07.430Z,4.40
2023-08-13T12:38:38.018Z,4.78
2023-08-13T12:41:08.386Z,4.60
2023-08-13T12:43:38.477Z,5.22
2023-08-13T12:46:08.337Z,4.65
2023-08-13T12:48:38.547Z,5.20
2023-08-13T12:51:07.155Z,4.75
2023-08-13T12:53:36.212Z,5.30
2023-08-13T12:56:07.660Z,4.95
2023-08-13T12:58:37.059Z,5.45
2023-08-13T13:01:05.422Z,5.10
2023-08-13T13:03:33.933Z,5.07
2023-08-13T13:06:01.986Z,5.22
2023-08-13T13:08:30.448Z,5.05
2023-08-13T13:10:59.070Z,5.10
2023-08-13T13:13:27.971Z,5.00
2023-08-13T13:15:56.400Z,5.38
2023-08-13T13:18:24.820Z,5.50
2023-08-13T13:20:53.307Z,5.22
2023-08-13T13:23:21.623Z,5.10
2023-08-13T13:25:50.202Z,5.23
2023-08-13T13:28:18.643Z,5.30
2023-08-13T13:30:46.839Z,5.40
2023-08-13T13:33:15.347Z,5.70
2023-08-13T13:35:44.681Z,5.30
2023-08-13T13:38:13.232Z,5.40
2023-08-13T13:40:41.653Z,5.38
2023-08-13T13:43:10.107Z,5.38
2023-08-13T13:45:37.988Z,5.85
2023-08-13T13:48:06.996Z,5.78
2023-08-13T13:50:36.038Z,5.50
2023-08-13T13:53:18.681Z,5.70
2023-08-13T13:55:50.669Z,5.65
2023-08-13T13:58:18.851Z,5.68
2023-08-13T14:00:50.481Z,6.00
2023-08-13T14:03:20.498Z,5.67
2023-08-13T14:05:53.533Z,5.60
2023-08-13T14:08:22.152Z,5.80
2023-08-13T14:10:50.071Z,5.70
2023-08-13T14:13:18.408Z,6.05
2023-08-13T14:15:46.626Z,5.57
2023-08-13T14:18:14.964Z,5.72
2023-08-13T14:20:43.083Z,5.68
2023-08-13T14:23:11.275Z,5.72
2023-08-13T14:25:39.593Z,6.20
2023-08-13T14:28:09.671Z,5.67
2023-08-13T14:30:37.923Z,5.80
2023-08-13T14:33:06.084Z,6.22
2023-08-13T14:35:35.035Z,6.35
2023-08-13T14:38:03.250Z,6.25
2023-08-13T14:40:31.305Z,5.40
2023-08-13T14:42:59.267Z,6.00
2023-08-13T14:45:27.516Z,5.43
2023-08-13T14:48:02.722Z,5.82
2023-08-13T14:50:31.346Z,5.82
2023-08-13T14:52:59.959Z,5.43
2023-08-13T14:55:28.814Z,5.72
2023-08-13T14:57:57.181Z,5.45
2023-08-13T15:00:25.496Z,5.47
2023-08-13T15:02:53.794Z,5.75
2023-08-13T15:05:22.183Z,5.23
2023-08-13T15:07:50.404Z,5.30
2023-08-13T15:10:19.517Z,5.88
2023-08-13T15:12:47.657Z,5.70
2023-08-13T15:15:18.629Z,5.30
2023-08-13T15:17:51.545Z,5.77
2023-08-13T15:20:19.978Z,5.60
2023-08-13T15:22:48.139Z,5.68
2023-08-13T15:25:16.310Z,5.47
2023-08-13T15:27:48.342Z,5.45
2023-08-13T15:30:19.644Z,5.90
2023-08-13T15:32:47.813Z,5.70
2023-08-13T15:35:15.961Z,5.68
2023-08-13T15:37:44.055Z,5.68
2023-08-13T15:40:12.294Z,5.80
2023-08-13T15:42:40.608Z,5.87
2023-08-13T15:45:08.907Z,5.80
2023-08-13T15:47:37.286Z,5.70
2023-08-13T15:50:05.683Z,6.05
2023-08-13T15:52:34.269Z,5.82
2023-08-13T15:55:02.727Z,5.70
2023-08-13T15:57:31.901Z,6.05
2023-08-13T16:00:00.079Z,5.45
2023-08-13T16:02:28.397Z,6.00
2023-08-13T16:04:56.820Z,5.85
2023-08-13T16:07:28.241Z,6.17
2023-08-13T16:09:56.537Z,6.55
2023-08-13T16:12:24.769Z,6.35
2023-08-13T16:14:53.187Z,5.93
2023-08-13T16:17:21.482Z,5.88
2023-08-13T16:19:50.353Z,5.80
2023-08-13T16:22:18.551Z,6.10
2023-08-13T16:24:46.832Z,6.05
2023-08-13T16:27:14.986Z,6.20
2023-08-13T16:29:43.192Z,6.38
2023-08-13T16:32:20.345Z,6.10
2023-08-13T16:34:56.387Z,5.97
2023-08-13T16:37:24.678Z,5.53
2023-08-13T16:39:53.403Z,6.00
2023-08-13T16:42:22.019Z,6.00
2023-08-13T16:44:50.310Z,6.10
2023-08-13T16:47:18.572Z,5.85
2023-08-13T16:49:47.872Z,5.72
2023-08-13T16:52:16.865Z,6.00
2023-08-13T16:54:45.516Z,5.88
2023-08-13T16:57:17.152Z,6.10
2023-08-13T16:59:50.269Z,5.75
2023-08-13T17:02:19.588Z,6.10
2023-08-13T17:04:47.737Z,5.80
2023-08-13T17:07:16.318Z,5.78
2023-08-13T17:09:44.502Z,5.60
2023-08-13T17:12:12.756Z,6.00
2023-08-13T17:14:40.960Z,5.80
2023-08-13T17:17:09.181Z,5.40
2023-08-13T17:19:37.140Z,5.60
2023-08-13T17:22:05.355Z,5.90
2023-08-13T17:24:34.048Z,6.03
2023-08-13T17:27:04.598Z,6.40
2023-08-13T17:29:33.202Z,6.03
2023-08-13T17:32:01.468Z,6.40
2023-08-13T17:34:29.646Z,5.87
2023-08-13T17:36:58.449Z,5.53
2023-08-13T17:39:26.906Z,6.00
2023-08-13T17:41:55.466Z,5.70
2023-08-13T17:44:24.034Z,5.75
2023-08-13T17:46:51.948Z,5.83
2023-08-13T17:49:20.286Z,5.93
2023-08-13T17:51:49.019Z,6.00
2023-08-13T17:54:17.825Z,5.53
2023-08-13T17:56:46.267Z,6.15
2023-08-13T17:59:15.996Z,6.07
2023-08-13T18:01:46.314Z,6.00
2023-08-13T18:04:14.739Z,6.68
2023-08-13T18:06:42.884Z,6.25
2023-08-13T18:09:11.666Z,5.80
2023-08-13T18:11:39.884Z,5.73
2023-08-13T18:14:08.180Z,5.82
2023-08-13T18:16:36.450Z,5.80
2023-08-13T18:19:09.028Z,5.60
2023-08-13T18:21:38.702Z,6.13
2023-08-13T18:24:08.009Z,6.13
2023-08-13T18:26:36.737Z,5.80
2023-08-13T18:29:04.989Z,5.93
2023-08-13T18:31:33.411Z,5.80
2023-08-13T18:34:01.664Z,6.25
2023-08-13T18:36:30.400Z,5.90
2023-08-13T18:38:59.117Z,6.25
2023-08-13T18:41:28.606Z,5.90
2023-08-13T18:43:58.492Z,5.75
2023-08-13T18:46:27.686Z,5.85
2023-08-13T18:48:55.898Z,6.27
2023-08-13T18:51:24.095Z,6.00
2023-08-13T18:53:53.334Z,6.18
2023-08-13T18:56:24.553Z,6.28
2023-08-13T18:58:52.983Z,6.20
2023-08-13T19:01:21.476Z,5.83
2023-08-13T19:03:50.947Z,6.20
2023-08-13T19:06:18.883Z,6.13
2023-08-13T19:08:48.947Z,6.20
2023-08-13T19:11:17.034Z,6.35
2023-08-13T19:13:45.251Z,6.67
2023-08-13T19:16:13.188Z,6.15
2023-08-13T19:18:43.712Z,6.60
2023-08-13T19:21:11.896Z,6.60
2023-08-13T19:23:39.988Z,6.57
2023-08-13T19:26:08.397Z,6.70
2023-08-13T19:28:36.388Z,6.15
2023-08-13T19:31:04.611Z,6.28
2023-08-13T19:33:33.108Z,6.38
2023-08-13T19:36:01.379Z,6.22
2023-08-13T19:38:29.711Z,6.10
2023-08-13T19:40:58.578Z,6.20
2023-08-13T19:43:28.755Z,6.47
2023-08-13T19:45:59.956Z,6.35
2023-08-13T19:48:53.384Z,6.35
2023-08-13T19:51:21.918Z,6.50
2023-08-13T19:53:49.775Z,6.45
2023-08-13T19:56:18.420Z,6.32
2023-08-13T19:58:46.597Z,6.40
2023-08-13T20:01:14.731Z,6.13
2023-08-13T20:03:42.967Z,6.57
2023-08-13T20:06:11.506Z,6.40
2023-08-13T20:08:39.680Z,6.32
2023-08-13T20:11:08.103Z,6.80
2023-08-13T20:13:36.188Z,6.50
2023-08-13T20:16:05.949Z,6.50
2023-08-13T20:18:34.622Z,6.97
2023-08-13T20:21:03.849Z,6.35
2023-08-13T20:23:32.039Z,6.78
2023-08-13T20:26:00.580Z,6.70
2023-08-13T20:28:28.622Z,6.50
2023-08-13T20:30:57.008Z,6.80
2023-08-13T20:33:25.250Z,6.63
2023-08-13T20:35:53.489Z,6.40
2023-08-13T20:38:21.671Z,6.57
2023-08-13T20:40:51.375Z,7.03
2023-08-13T20:43:22.788Z,7.10
2023-08-13T20:45:51.229Z,7.10
2023-08-13T20:48:19.398Z,7.13
2023-08-13T20:50:50.137Z,7.10
2023-08-13T20:53:18.404Z,7.17
2023-08-13T20:55:47.144Z,7.13
2023-08-13T20:58:17.921Z,7.03
2023-08-13T21:00:46.494Z,7.03
2023-08-13T21:03:14.841Z,7.07
2023-08-13T21:05:46.540Z,6.73
2023-08-13T21:08:14.630Z,6.88
2023-08-13T21:10:42.489Z,7.25
2023-08-13T21:13:10.853Z,6.90
2023-08-13T21:15:41.778Z,7.30
2023-08-13T21:18:16.333Z,7.07
2023-08-13T21:20:46.457Z,8.73
2023-08-13T21:23:18.028Z,12.88
2023-08-13T21:25:46.958Z,11.40
2023-08-13T21:28:15.210Z,8.88
2023-08-13T21:30:43.511Z,7.87
2023-08-13T21:33:11.471Z,7.30
2023-08-13T21:35:39.832Z,7.57
2023-08-13T21:38:07.939Z,7.60
2023-08-13T21:40:36.748Z,7.72
2023-08-13T21:43:04.700Z,8.10
2023-08-13T21:45:33.846Z,7.72
2023-08-13T21:48:01.887Z,7.72
2023-08-13T21:50:30.165Z,7.65
2023-08-13T21:52:58.265Z,7.75
2023-08-13T21:55:26.725Z,7.37
2023-08-13T21:57:55.008Z,7.53
2023-08-13T22:00:27.492Z,7.70
2023-08-13T22:02:56.901Z,8.20
2023-08-13T22:05:28.006Z,7.80
2023-08-13T22:07:57.422Z,7.70
2023-08-13T22:10:27.055Z,7.60
2023-08-13T22:12:57.116Z,8.32
2023-08-13T22:15:25.390Z,7.35
2023-08-13T22:17:53.624Z,7.60
2023-08-13T22:20:37.158Z,7.70
2023-08-13T22:23:19.459Z,7.40
2023-08-13T22:25:48.714Z,7.38
2023-08-13T22:28:16.673Z,7.45
2023-08-13T22:30:44.858Z,7.70
2023-08-13T22:33:15.465Z,7.43
2023-08-13T22:35:43.779Z,7.88
2023-08-13T22:38:11.641Z,7.45
2023-08-13T22:40:39.881Z,7.93
2023-08-13T22:43:07.816Z,7.18
2023-08-13T22:45:36.446Z,7.70
2023-08-13T22:48:06.030Z,8.00
2023-08-13T22:50:34.394Z,8.13
2023-08-13T22:53:02.631Z,8.10
2023-08-13T22:55:31.036Z,8.38
2023-08-13T22:57:59.100Z,7.60
2023-08-13T23:00:28.187Z,7.60
2023-08-13T23:02:56.832Z,8.10
2023-08-13T23:05:26.615Z,7.72
2023-08-13T23:08:16.106Z,7.90
2023-08-13T23:11:26.318Z,7.83
2023-08-13T23:13:57.038Z,7.45
2023-08-13T23:16:35.175Z,7.95
2023-08-13T23:19:08.113Z,7.82
2023-08-13T23:21:38.726Z,7.53
2023-08-13T23:24:12.642Z,7.27
2023-08-13T23:26:45.818Z,7.57
2023-08-13T23:29:21.217Z,7.70
2023-08-13T23:31:53.819Z,7.57
2023-08-13T23:34:23.430Z,7.70
2023-08-13T23:36:51.522Z,7.37
2023-08-13T23:39:19.576Z,7.30
2023-08-13T23:41:50.817Z,7.70
2023-08-13T23:44:19.194Z,7.40
2023-08-13T23:46:47.203Z,7.43
2023-08-13T23:49:15.544Z,7.10
2023-08-13T23:51:43.729Z,7.55
2023-08-13T23:54:11.932Z,7.47
2023-08-13T23:56:40.410Z,7.15
2023-08-13T23:59:08.576Z,7.40
